Route Details

Aircraft Information
Group: North America Fleet
Types: B738, B752, B762, B763
Route Data
Distance: 965nm
Duration: 0h 00m
Origin METAR: KILN 142046Z AUTO 27007KT 7SM -RA BKN110 21/19 A3010 RMK AO2 PK WND 31034/1955 WSHFT 1941 LTG DSNT E-SW TSB1956E40 P0052 T02110194
Dest. METAR: KDEN 141953Z VRB04KT 10SM FEW130 SCT160 36/02 A3017 RMK AO2 SLP114 T03610017
Freight Data
(for Jul 14, 2024)
Load Factor:
16%
Manifested Cargo: 19,214lbs
Financial History
Total Freight: 0lbs
Average Load: 0lbs/flt
Fuel Used: 0lbs
Avg. Fuel Used: 0lbs/flt
Fuel Expense: $0
Avg. Fuel Expense: $0
Avg. Fuel Cost: $0/lbs
Total Gross Income: $0
Pilot Pay: $0
Total Expenses: $0
Total Revenue: $0
Average Revenue: $0

Capitol Logistics 311




KILN
Wilmington Air Park
Wilmington, Ohio
KDEN
Denver International Airport
Denver, Colorado

Activity Log

Date Flight Route Aircraft Duration
No Flights Yet